sensor_id;sensor_type;location;lat;lon;timestamp;pressure;altitude;pressure_sealevel;temperature;humidity
65175;BME280;51761;42.126;24.752;2023-03-04T00:01:46;99790.31;;;5.60;97.25
65175;BME280;51761;42.126;24.752;2023-03-04T00:04:12;99762.53;;;5.46;97.67
65175;BME280;51761;42.126;24.752;2023-03-04T00:06:38;99783.91;;;5.49;97.73
65175;BME280;51761;42.126;24.752;2023-03-04T00:09:03;99765.66;;;5.41;97.54
65175;BME280;51761;42.126;24.752;2023-03-04T00:11:30;99788.31;;;5.57;96.99
65175;BME280;51761;42.126;24.752;2023-03-04T00:13:56;99782.03;;;5.64;96.35
65175;BME280;51761;42.126;24.752;2023-03-04T00:16:22;99759.47;;;5.62;95.39
65175;BME280;51761;42.126;24.752;2023-03-04T00:18:54;99766.97;;;5.58;95.33
65175;BME280;51761;42.126;24.752;2023-03-04T00:21:20;99772.59;;;5.72;95.28
65175;BME280;51761;42.126;24.752;2023-03-04T00:23:46;99768.97;;;5.64;94.93
65175;BME280;51761;42.126;24.752;2023-03-04T00:26:11;99776.16;;;5.72;95.14
65175;BME280;51761;42.126;24.752;2023-03-04T00:28:38;99765.69;;;5.45;94.14
65175;BME280;51761;42.126;24.752;2023-03-04T00:31:06;99781.03;;;5.35;94.13
65175;BME280;51761;42.126;24.752;2023-03-04T00:33:32;99772.59;;;5.18;95.02
65175;BME280;51761;42.126;24.752;2023-03-04T00:35:58;99761.03;;;5.05;95.69
65175;BME280;51761;42.126;24.752;2023-03-04T00:38:24;99755.06;;;5.03;96.08
65175;BME280;51761;42.126;24.752;2023-03-04T00:40:50;99752.63;;;4.91;96.38
65175;BME280;51761;42.126;24.752;2023-03-04T00:43:15;99764.47;;;4.92;96.40
65175;BME280;51761;42.126;24.752;2023-03-04T00:45:41;99772.34;;;4.86;97.26
65175;BME280;51761;42.126;24.752;2023-03-04T00:48:06;99766.88;;;4.93;97.60
65175;BME280;51761;42.126;24.752;2023-03-04T00:50:32;99768.88;;;4.96;97.94
65175;BME280;51761;42.126;24.752;2023-03-04T00:52:57;99778.16;;;5.21;98.60
65175;BME280;51761;42.126;24.752;2023-03-04T00:55:24;99768.78;;;5.36;97.72
65175;BME280;51761;42.126;24.752;2023-03-04T00:57:49;99757.22;;;5.24;97.56
65175;BME280;51761;42.126;24.752;2023-03-04T01:00:15;99766.84;;;5.40;97.52
65175;BME280;51761;42.126;24.752;2023-03-04T01:02:40;99770.00;;;5.39;96.94
65175;BME280;51761;42.126;24.752;2023-03-04T01:05:06;99783.94;;;5.53;97.26
65175;BME280;51761;42.126;24.752;2023-03-04T01:07:32;99766.50;;;5.45;96.85
65175;BME280;51761;42.126;24.752;2023-03-04T01:09:58;99771.69;;;5.57;96.75
65175;BME280;51761;42.126;24.752;2023-03-04T01:12:23;99743.56;;;5.48;96.78
65175;BME280;51761;42.126;24.752;2023-03-04T01:14:49;99770.16;;;5.63;97.10
65175;BME280;51761;42.126;24.752;2023-03-04T01:17:14;99745.16;;;5.49;96.55
65175;BME280;51761;42.126;24.752;2023-03-04T01:19:40;99768.97;;;5.61;96.38
65175;BME280;51761;42.126;24.752;2023-03-04T01:22:05;99767.25;;;5.42;96.30
65175;BME280;51761;42.126;24.752;2023-03-04T01:24:31;99746.50;;;5.19;96.52
65175;BME280;51761;42.126;24.752;2023-03-04T01:26:56;99760.00;;;5.27;96.26
65175;BME280;51761;42.126;24.752;2023-03-04T01:29:22;99758.03;;;5.24;96.35
65175;BME280;51761;42.126;24.752;2023-03-04T01:31:47;99752.44;;;5.17;95.90
65175;BME280;51761;42.126;24.752;2023-03-04T01:34:13;99757.97;;;5.21;96.40
65175;BME280;51761;42.126;24.752;2023-03-04T01:36:38;99762.69;;;5.13;96.95
65175;BME280;51761;42.126;24.752;2023-03-04T01:39:04;99762.19;;;5.04;96.93
65175;BME280;51761;42.126;24.752;2023-03-04T01:41:30;99759.16;;;5.16;96.16
65175;BME280;51761;42.126;24.752;2023-03-04T01:43:57;99737.69;;;5.03;96.35
65175;BME280;51761;42.126;24.752;2023-03-04T01:46:23;99751.56;;;5.10;96.78
65175;BME280;51761;42.126;24.752;2023-03-04T01:48:49;99735.34;;;5.05;96.84
65175;BME280;51761;42.126;24.752;2023-03-04T01:51:16;99745.31;;;5.16;97.13
65175;BME280;51761;42.126;24.752;2023-03-04T01:53:44;99745.53;;;4.97;97.84
65175;BME280;51761;42.126;24.752;2023-03-04T01:56:35;99739.28;;;5.07;97.90
65175;BME280;51761;42.126;24.752;2023-03-04T02:01:40;99741.66;;;5.05;98.41
65175;BME280;51761;42.126;24.752;2023-03-04T02:04:09;99746.34;;;4.98;98.56
65175;BME280;51761;42.126;24.752;2023-03-04T02:06:37;99725.34;;;4.93;98.30
65175;BME280;51761;42.126;24.752;2023-03-04T02:09:03;99723.81;;;4.99;98.07
65175;BME280;51761;42.126;24.752;2023-03-04T02:11:28;99728.34;;;5.21;97.97
65175;BME280;51761;42.126;24.752;2023-03-04T02:13:54;99734.81;;;5.39;98.00
65175;BME280;51761;42.126;24.752;2023-03-04T02:16:20;99710.22;;;5.34;98.14
65175;BME280;51761;42.126;24.752;2023-03-04T02:18:45;99731.19;;;5.35;97.53
65175;BME280;51761;42.126;24.752;2023-03-04T02:21:16;99736.44;;;5.51;98.30
65175;BME280;51761;42.126;24.752;2023-03-04T02:23:54;99728.59;;;5.63;97.16
65175;BME280;51761;42.126;24.752;2023-03-04T02:26:25;99734.59;;;5.72;96.13
65175;BME280;51761;42.126;24.752;2023-03-04T02:28:53;99723.50;;;5.69;96.81
65175;BME280;51761;42.126;24.752;2023-03-04T02:31:35;99723.91;;;5.74;96.43
65175;BME280;51761;42.126;24.752;2023-03-04T02:34:10;99691.72;;;5.49;96.02
65175;BME280;51761;42.126;24.752;2023-03-04T02:36:37;99717.97;;;5.72;96.47
65175;BME280;51761;42.126;24.752;2023-03-04T02:39:07;99700.47;;;5.61;96.34
65175;BME280;51761;42.126;24.752;2023-03-04T02:41:35;99705.66;;;5.66;95.98
65175;BME280;51761;42.126;24.752;2023-03-04T02:44:01;99698.06;;;5.53;96.24
65175;BME280;51761;42.126;24.752;2023-03-04T02:46:27;99712.31;;;5.51;96.18
65175;BME280;51761;42.126;24.752;2023-03-04T02:48:52;99690.91;;;5.45;96.19
65175;BME280;51761;42.126;24.752;2023-03-04T02:51:18;99708.78;;;5.61;96.01
65175;BME280;51761;42.126;24.752;2023-03-04T02:53:43;99706.34;;;5.46;95.77
65175;BME280;51761;42.126;24.752;2023-03-04T02:56:09;99715.47;;;5.53;96.46
65175;BME280;51761;42.126;24.752;2023-03-04T02:58:34;99716.16;;;5.36;96.44
65175;BME280;51761;42.126;24.752;2023-03-04T03:01:01;99699.88;;;5.24;96.66
65175;BME280;51761;42.126;24.752;2023-03-04T03:03:26;99698.25;;;5.16;96.97
65175;BME280;51761;42.126;24.752;2023-03-04T03:05:52;99718.22;;;5.46;97.36
65175;BME280;51761;42.126;24.752;2023-03-04T03:08:18;99730.56;;;5.59;97.04
65175;BME280;51761;42.126;24.752;2023-03-04T03:10:44;99725.81;;;5.60;97.09
65175;BME280;51761;42.126;24.752;2023-03-04T03:13:09;99731.03;;;5.68;96.57
65175;BME280;51761;42.126;24.752;2023-03-04T03:15:35;99721.41;;;5.52;96.27
65175;BME280;51761;42.126;24.752;2023-03-04T03:18:03;99739.31;;;5.65;95.70
65175;BME280;51761;42.126;24.752;2023-03-04T03:20:28;99735.31;;;5.62;96.03
65175;BME280;51761;42.126;24.752;2023-03-04T03:22:54;99719.47;;;5.56;95.66
65175;BME280;51761;42.126;24.752;2023-03-04T03:25:19;99748.00;;;5.63;95.34
65175;BME280;51761;42.126;24.752;2023-03-04T03:27:45;99740.44;;;5.57;96.11
65175;BME280;51761;42.126;24.752;2023-03-04T03:30:12;99746.28;;;5.41;96.61
65175;BME280;51761;42.126;24.752;2023-03-04T03:32:38;99740.75;;;5.45;97.07
65175;BME280;51761;42.126;24.752;2023-03-04T03:35:04;99738.78;;;5.45;96.94
65175;BME280;51761;42.126;24.752;2023-03-04T03:37:30;99738.38;;;5.43;96.87
65175;BME280;51761;42.126;24.752;2023-03-04T03:39:55;99716.84;;;5.19;96.75
65175;BME280;51761;42.126;24.752;2023-03-04T03:42:21;99739.88;;;5.30;96.85
65175;BME280;51761;42.126;24.752;2023-03-04T03:44:46;99735.13;;;5.34;97.11
65175;BME280;51761;42.126;24.752;2023-03-04T03:47:12;99729.59;;;5.34;96.40
65175;BME280;51761;42.126;24.752;2023-03-04T03:49:37;99736.41;;;5.44;96.74
65175;BME280;51761;42.126;24.752;2023-03-04T03:52:03;99738.00;;;5.48;96.60
65175;BME280;51761;42.126;24.752;2023-03-04T03:54:29;99717.16;;;5.07;96.14
65175;BME280;51761;42.126;24.752;2023-03-04T03:56:54;99739.09;;;5.30;97.08
65175;BME280;51761;42.126;24.752;2023-03-04T03:59:20;99740.22;;;5.25;96.65
65175;BME280;51761;42.126;24.752;2023-03-04T04:01:45;99738.31;;;5.36;96.82
65175;BME280;51761;42.126;24.752;2023-03-04T04:04:11;99736.41;;;5.40;96.67
65175;BME280;51761;42.126;24.752;2023-03-04T04:06:36;99711.81;;;5.35;96.56
65175;BME280;51761;42.126;24.752;2023-03-04T04:09:02;99707.38;;;5.20;96.56
65175;BME280;51761;42.126;24.752;2023-03-04T04:11:27;99731.63;;;5.41;96.65
65175;BME280;51761;42.126;24.752;2023-03-04T04:13:53;99737.53;;;5.36;96.52
65175;BME280;51761;42.126;24.752;2023-03-04T04:16:19;99714.69;;;4.95;96.63
65175;BME280;51761;42.126;24.752;2023-03-04T04:18:45;99734.56;;;5.08;97.21
65175;BME280;51761;42.126;24.752;2023-03-04T04:21:10;99733.78;;;5.11;97.04
65175;BME280;51761;42.126;24.752;2023-03-04T04:23:36;99714.66;;;4.88;97.09
65175;BME280;51761;42.126;24.752;2023-03-04T04:26:02;99725.00;;;4.98;97.41
65175;BME280;51761;42.126;24.752;2023-03-04T04:28:27;99739.22;;;4.97;97.59
65175;BME280;51761;42.126;24.752;2023-03-04T04:30:53;99735.59;;;4.89;97.80
65175;BME280;51761;42.126;24.752;2023-03-04T04:33:19;99752.72;;;5.05;97.75
65175;BME280;51761;42.126;24.752;2023-03-04T04:35:44;99745.28;;;5.13;97.53
65175;BME280;51761;42.126;24.752;2023-03-04T04:38:10;99753.63;;;5.20;96.63
65175;BME280;51761;42.126;24.752;2023-03-04T04:40:35;99756.75;;;5.15;95.97
65175;BME280;51761;42.126;24.752;2023-03-04T04:43:01;99735.66;;;4.96;96.86
65175;BME280;51761;42.126;24.752;2023-03-04T04:45:27;99746.44;;;5.12;97.04
65175;BME280;51761;42.126;24.752;2023-03-04T04:47:54;99752.44;;;5.17;97.33
65175;BME280;51761;42.126;24.752;2023-03-04T04:50:24;99748.50;;;5.22;96.88
65175;BME280;51761;42.126;24.752;2023-03-04T04:52:50;99751.53;;;5.06;96.94
65175;BME280;51761;42.126;24.752;2023-03-04T04:55:16;99749.06;;;4.94;97.23
65175;BME280;51761;42.126;24.752;2023-03-04T04:57:41;99759.84;;;5.03;97.85
65175;BME280;51761;42.126;24.752;2023-03-04T05:00:08;99757.94;;;5.10;97.08
65175;BME280;51761;42.126;24.752;2023-03-04T05:02:35;99761.28;;;4.86;97.07
65175;BME280;51761;42.126;24.752;2023-03-04T05:05:03;99715.81;;;4.48;97.67
65175;BME280;51761;42.126;24.752;2023-03-04T05:07:28;99769.59;;;4.90;98.39
65175;BME280;51761;42.126;24.752;2023-03-04T05:09:54;99763.84;;;5.09;96.87
65175;BME280;51761;42.126;24.752;2023-03-04T05:12:19;99774.03;;;5.01;97.23
65175;BME280;51761;42.126;24.752;2023-03-04T05:14:45;99746.97;;;4.81;97.47
65175;BME280;51761;42.126;24.752;2023-03-04T05:17:10;99750.88;;;4.76;98.43
65175;BME280;51761;42.126;24.752;2023-03-04T05:19:36;99771.19;;;4.91;98.10
65175;BME280;51761;42.126;24.752;2023-03-04T05:22:01;99764.69;;;4.73;99.08
65175;BME280;51761;42.126;24.752;2023-03-04T05:24:27;99757.88;;;4.63;98.80
65175;BME280;51761;42.126;24.752;2023-03-04T05:26:52;99775.50;;;4.49;98.43
65175;BME280;51761;42.126;24.752;2023-03-04T05:29:18;99769.78;;;4.67;97.00
65175;BME280;51761;42.126;24.752;2023-03-04T05:31:43;99763.00;;;4.62;95.32
65175;BME280;51761;42.126;24.752;2023-03-04T05:34:09;99745.91;;;4.53;95.80
65175;BME280;51761;42.126;24.752;2023-03-04T05:36:34;99759.66;;;4.46;97.18
65175;BME280;51761;42.126;24.752;2023-03-04T05:39:00;99771.38;;;4.68;96.37
65175;BME280;51761;42.126;24.752;2023-03-04T05:41:25;99772.50;;;4.64;96.86
65175;BME280;51761;42.126;24.752;2023-03-04T05:43:51;99766.59;;;4.65;97.33
65175;BME280;51761;42.126;24.752;2023-03-04T05:46:17;99757.31;;;4.48;97.43
65175;BME280;51761;42.126;24.752;2023-03-04T05:48:48;99798.44;;;4.49;98.47
65175;BME280;51761;42.126;24.752;2023-03-04T05:51:13;99784.75;;;4.30;99.13
65175;BME280;51761;42.126;24.752;2023-03-04T05:53:40;99785.06;;;4.22;99.21
65175;BME280;51761;42.126;24.752;2023-03-04T05:56:10;99783.84;;;4.19;100.00
65175;BME280;51761;42.126;24.752;2023-03-04T05:58:36;99780.28;;;4.19;100.00
65175;BME280;51761;42.126;24.752;2023-03-04T06:01:02;99776.88;;;3.99;100.00
65175;BME280;51761;42.126;24.752;2023-03-04T06:03:28;99791.72;;;3.88;100.00
65175;BME280;51761;42.126;24.752;2023-03-04T06:05:54;99800.41;;;3.86;100.00
65175;BME280;51761;42.126;24.752;2023-03-04T06:08:19;99790.88;;;3.84;100.00
65175;BME280;51761;42.126;24.752;2023-03-04T06:10:45;99782.94;;;3.79;100.00
65175;BME280;51761;42.126;24.752;2023-03-04T06:13:11;99797.75;;;3.97;100.00
65175;BME280;51761;42.126;24.752;2023-03-04T06:15:37;99805.63;;;3.95;100.00
65175;BME280;51761;42.126;24.752;2023-03-04T06:18:03;99790.88;;;3.84;100.00
65175;BME280;51761;42.126;24.752;2023-03-04T06:20:29;99780.34;;;3.93;100.00
65175;BME280;51761;42.126;24.752;2023-03-04T06:22:55;99796.16;;;3.96;100.00
65175;BME280;51761;42.126;24.752;2023-03-04T06:25:20;99779.22;;;3.97;100.00
65175;BME280;51761;42.126;24.752;2023-03-04T06:27:46;99773.84;;;4.08;100.00
65175;BME280;51761;42.126;24.752;2023-03-04T06:30:12;99809.69;;;4.34;100.00
65175;BME280;51761;42.126;24.752;2023-03-04T06:32:37;99814.94;;;4.42;99.96
65175;BME280;51761;42.126;24.752;2023-03-04T06:35:03;99821.31;;;4.50;100.00
65175;BME280;51761;42.126;24.752;2023-03-04T06:37:29;99820.31;;;4.64;100.00
65175;BME280;51761;42.126;24.752;2023-03-04T06:39:54;99801.97;;;4.50;99.76
65175;BME280;51761;42.126;24.752;2023-03-04T06:42:20;99812.09;;;4.71;99.79
65175;BME280;51761;42.126;24.752;2023-03-04T06:44:47;99805.69;;;4.64;99.63
65175;BME280;51761;42.126;24.752;2023-03-04T06:47:14;99816.53;;;4.79;100.00
65175;BME280;51761;42.126;24.752;2023-03-04T06:49:40;99826.41;;;4.80;99.94
65175;BME280;51761;42.126;24.752;2023-03-04T06:52:05;99823.72;;;4.87;100.00
65175;BME280;51761;42.126;24.752;2023-03-04T06:54:31;99816.66;;;4.93;99.08
65175;BME280;51761;42.126;24.752;2023-03-04T06:56:56;99810.25;;;4.82;99.71
65175;BME280;51761;42.126;24.752;2023-03-04T06:59:22;99837.03;;;5.11;99.35
65175;BME280;51761;42.126;24.752;2023-03-04T07:01:47;99828.47;;;5.27;98.43
65175;BME280;51761;42.126;24.752;2023-03-04T07:04:13;99815.13;;;5.39;96.71
65175;BME280;51761;42.126;24.752;2023-03-04T07:06:39;99836.41;;;5.35;97.77
65175;BME280;51761;42.126;24.752;2023-03-04T07:09:04;99816.19;;;5.28;98.41
65175;BME280;51761;42.126;24.752;2023-03-04T07:11:31;99809.13;;;5.37;98.05
65175;BME280;51761;42.126;24.752;2023-03-04T07:13:58;99806.13;;;5.56;96.67
65175;BME280;51761;42.126;24.752;2023-03-04T07:16:23;99826.81;;;5.73;96.40
65175;BME280;51761;42.126;24.752;2023-03-04T07:18:49;99826.44;;;5.78;96.16
65175;BME280;51761;42.126;24.752;2023-03-04T07:21:15;99833.28;;;5.87;96.54
65175;BME280;51761;42.126;24.752;2023-03-04T07:23:41;99827.81;;;5.98;95.70
65175;BME280;51761;42.126;24.752;2023-03-04T07:26:07;99828.63;;;5.98;95.73
65175;BME280;51761;42.126;24.752;2023-03-04T07:28:34;99827.13;;;6.18;95.26
65175;BME280;51761;42.126;24.752;2023-03-04T07:31:26;99833.31;;;6.93;100.00
65175;BME280;51761;42.126;24.752;2023-03-04T07:33:56;99811.34;;;9.64;100.00
65175;BME280;51761;42.126;24.752;2023-03-04T07:36:21;99820.47;;;10.76;100.00
65175;BME280;51761;42.126;24.752;2023-03-04T07:38:48;99818.72;;;10.89;100.00
65175;BME280;51761;42.126;24.752;2023-03-04T07:41:14;99809.50;;;11.18;100.00
65175;BME280;51761;42.126;24.752;2023-03-04T07:43:40;99785.84;;;11.49;100.00
65175;BME280;51761;42.126;24.752;2023-03-04T07:46:06;99806.94;;;11.80;100.00
65175;BME280;51761;42.126;24.752;2023-03-04T07:48:32;99802.91;;;11.31;78.73
65175;BME280;51761;42.126;24.752;2023-03-04T07:51:07;99822.91;;;10.74;74.70
65175;BME280;51761;42.126;24.752;2023-03-04T07:53:33;99812.09;;;10.46;74.40
65175;BME280;51761;42.126;24.752;2023-03-04T07:55:59;99815.81;;;9.99;75.38
65175;BME280;51761;42.126;24.752;2023-03-04T07:58:25;99816.09;;;9.67;76.43
65175;BME280;51761;42.126;24.752;2023-03-04T08:00:50;99771.88;;;8.68;81.60
65175;BME280;51761;42.126;24.752;2023-03-04T08:03:16;99804.59;;;8.46;83.55
65175;BME280;51761;42.126;24.752;2023-03-04T08:05:41;99806.66;;;8.14;83.58
65175;BME280;51761;42.126;24.752;2023-03-04T08:08:07;99802.78;;;7.91;84.81
65175;BME280;51761;42.126;24.752;2023-03-04T08:10:33;99806.34;;;7.84;85.37
65175;BME280;51761;42.126;24.752;2023-03-04T08:12:58;99803.19;;;7.62;86.34
65175;BME280;51761;42.126;24.752;2023-03-04T08:15:24;99806.78;;;7.52;88.16
65175;BME280;51761;42.126;24.752;2023-03-04T08:17:52;99807.19;;;7.43;89.29
65175;BME280;51761;42.126;24.752;2023-03-04T08:20:17;99817.09;;;7.27;90.21
65175;BME280;51761;42.126;24.752;2023-03-04T08:22:43;99813.94;;;7.25;90.80
65175;BME280;51761;42.126;24.752;2023-03-04T08:25:08;99824.66;;;7.37;90.22
65175;BME280;51761;42.126;24.752;2023-03-04T08:27:34;99825.47;;;7.58;88.58
65175;BME280;51761;42.126;24.752;2023-03-04T08:30:02;99802.41;;;7.37;89.60
65175;BME280;51761;42.126;24.752;2023-03-04T08:32:28;99824.25;;;7.56;89.74
65175;BME280;51761;42.126;24.752;2023-03-04T08:34:53;99823.47;;;7.62;90.78
65175;BME280;51761;42.126;24.752;2023-03-04T08:37:20;99817.88;;;7.79;88.10
65175;BME280;51761;42.126;24.752;2023-03-04T08:39:45;99811.47;;;8.00;86.46
65175;BME280;51761;42.126;24.752;2023-03-04T08:42:11;99817.78;;;8.21;85.92
65175;BME280;51761;42.126;24.752;2023-03-04T08:44:36;99820.94;;;8.37;85.21
65175;BME280;51761;42.126;24.752;2023-03-04T08:47:02;99798.69;;;8.34;86.68
65175;BME280;51761;42.126;24.752;2023-03-04T08:49:27;99822.00;;;8.64;84.63
65175;BME280;51761;42.126;24.752;2023-03-04T08:51:53;99792.16;;;8.72;83.67
65175;BME280;51761;42.126;24.752;2023-03-04T08:54:18;99814.66;;;8.98;81.72
65175;BME280;51761;42.126;24.752;2023-03-04T08:56:44;99818.78;;;9.34;81.67
65175;BME280;51761;42.126;24.752;2023-03-04T08:59:09;99794.22;;;9.66;79.82
65175;BME280;51761;42.126;24.752;2023-03-04T09:01:35;99803.38;;;10.07;77.54
65175;BME280;51761;42.126;24.752;2023-03-04T09:04:01;99782.72;;;10.34;76.24
65175;BME280;51761;42.126;24.752;2023-03-04T09:06:26;99792.22;;;11.00;77.65
65175;BME280;51761;42.126;24.752;2023-03-04T09:08:52;99801.03;;;11.48;75.18
65175;BME280;51761;42.126;24.752;2023-03-04T09:11:17;99777.09;;;11.93;71.28
65175;BME280;51761;42.126;24.752;2023-03-04T09:13:43;99789.63;;;12.27;69.28
65175;BME280;51761;42.126;24.752;2023-03-04T09:16:10;99778.13;;;12.41;69.22
65175;BME280;51761;42.126;24.752;2023-03-04T09:18:36;99788.81;;;12.46;69.45
65175;BME280;51761;42.126;24.752;2023-03-04T09:21:03;99776.53;;;12.40;68.76
65175;BME280;51761;42.126;24.752;2023-03-04T09:23:29;99785.50;;;12.70;67.41
65175;BME280;51761;42.126;24.752;2023-03-04T09:25:54;99793.34;;;12.79;67.09
65175;BME280;51761;42.126;24.752;2023-03-04T09:28:20;99784.09;;;12.63;66.86
65175;BME280;51761;42.126;24.752;2023-03-04T09:30:45;99760.25;;;12.35;67.15
65175;BME280;51761;42.126;24.752;2023-03-04T09:33:12;99774.34;;;12.51;68.46
65175;BME280;51761;42.126;24.752;2023-03-04T09:35:38;99774.00;;;12.65;67.54
65175;BME280;51761;42.126;24.752;2023-03-04T09:38:03;99753.53;;;12.68;66.37
65175;BME280;51761;42.126;24.752;2023-03-04T09:40:36;99766.19;;;12.76;67.91
65175;BME280;51761;42.126;24.752;2023-03-04T09:43:04;99776.97;;;13.29;63.63
65175;BME280;51761;42.126;24.752;2023-03-04T09:45:39;99773.91;;;13.39;63.38
65175;BME280;51761;42.126;24.752;2023-03-04T09:48:08;99754.44;;;13.32;62.31
65175;BME280;51761;42.126;24.752;2023-03-04T09:50:41;99757.69;;;13.31;64.74
65175;BME280;51761;42.126;24.752;2023-03-04T09:53:27;99779.84;;;13.89;63.08
65175;BME280;51761;42.126;24.752;2023-03-04T09:55:57;99760.09;;;13.93;62.51
65175;BME280;51761;42.126;24.752;2023-03-04T10:01:06;99752.25;;;14.16;62.29
65175;BME280;51761;42.126;24.752;2023-03-04T10:06:12;99747.94;;;13.67;60.45
65175;BME280;51761;42.126;24.752;2023-03-04T10:16:20;99754.16;;;13.59;62.19
65175;BME280;51761;42.126;24.752;2023-03-04T10:21:44;99740.75;;;13.18;63.75
65175;BME280;51761;42.126;24.752;2023-03-04T10:24:18;99747.25;;;13.15;65.12
65175;BME280;51761;42.126;24.752;2023-03-04T10:26:51;99745.00;;;13.26;63.03
65175;BME280;51761;42.126;24.752;2023-03-04T10:29:20;99737.59;;;13.16;65.57
65175;BME280;51761;42.126;24.752;2023-03-04T10:31:47;99713.94;;;13.01;64.33
65175;BME280;51761;42.126;24.752;2023-03-04T10:34:15;99727.97;;;13.01;63.31
65175;BME280;51761;42.126;24.752;2023-03-04T10:36:53;99725.00;;;13.08;64.86
65175;BME280;51761;42.126;24.752;2023-03-04T10:39:21;99717.19;;;13.16;66.73
65175;BME280;51761;42.126;24.752;2023-03-04T10:44:41;99694.16;;;13.08;66.76
65175;BME280;51761;42.126;24.752;2023-03-04T10:47:10;99708.97;;;13.41;68.19
65175;BME280;51761;42.126;24.752;2023-03-04T10:49:55;99705.19;;;13.47;68.11
65175;BME280;51761;42.126;24.752;2023-03-04T10:54:52;99687.31;;;13.09;68.75
65175;BME280;51761;42.126;24.752;2023-03-04T10:57:22;99702.59;;;12.89;70.00
65175;BME280;51761;42.126;24.752;2023-03-04T10:59:59;99682.06;;;12.60;70.82
65175;BME280;51761;42.126;24.752;2023-03-04T11:02:26;99696.63;;;12.71;70.63
65175;BME280;51761;42.126;24.752;2023-03-04T11:07:31;99671.97;;;13.30;68.47
65175;BME280;51761;42.126;24.752;2023-03-04T11:10:12;99671.59;;;13.28;68.31
65175;BME280;51761;42.126;24.752;2023-03-04T11:12:38;99643.91;;;13.30;69.19
65175;BME280;51761;42.126;24.752;2023-03-04T11:15:17;99658.06;;;13.55;67.32
65175;BME280;51761;42.126;24.752;2023-03-04T11:17:50;99651.75;;;13.67;66.94
65175;BME280;51761;42.126;24.752;2023-03-04T11:20:30;99638.53;;;13.80;66.92
65175;BME280;51761;42.126;24.752;2023-03-04T11:23:00;99643.22;;;13.70;68.13
65175;BME280;51761;42.126;24.752;2023-03-04T11:25:35;99623.25;;;13.81;67.57
65175;BME280;51761;42.126;24.752;2023-03-04T11:28:25;99641.63;;;13.69;65.72
65175;BME280;51761;42.126;24.752;2023-03-04T11:30:58;99637.31;;;13.52;68.22
65175;BME280;51761;42.126;24.752;2023-03-04T11:33:37;99629.47;;;13.15;69.44
65175;BME280;51761;42.126;24.752;2023-03-04T11:36:35;99635.00;;;13.03;68.95
65175;BME280;51761;42.126;24.752;2023-03-04T11:39:15;99630.88;;;12.91;69.80
65175;BME280;51761;42.126;24.752;2023-03-04T11:41:59;99604.78;;;12.63;69.94
65175;BME280;51761;42.126;24.752;2023-03-04T11:44:28;99614.13;;;12.56;70.91
65175;BME280;51761;42.126;24.752;2023-03-04T11:50:31;99613.25;;;12.59;71.15
65175;BME280;51761;42.126;24.752;2023-03-04T12:11:45;99597.91;;;13.56;67.91
65175;BME280;51761;42.126;24.752;2023-03-04T12:19:48;99592.69;;;14.73;62.98
65175;BME280;51761;42.126;24.752;2023-03-04T12:22:32;99594.25;;;14.99;61.90
65175;BME280;51761;42.126;24.752;2023-03-04T12:25:37;99586.03;;;15.05;60.99
65175;BME280;51761;42.126;24.752;2023-03-04T12:31:18;99591.03;;;14.63;59.87
65175;BME280;51761;42.126;24.752;2023-03-04T12:39:40;99579.38;;;14.52;62.18
65175;BME280;51761;42.126;24.752;2023-03-04T12:45:59;99581.88;;;14.10;60.46
65175;BME280;51761;42.126;24.752;2023-03-04T12:56:41;99559.59;;;14.19;59.82
65175;BME280;51761;42.126;24.752;2023-03-04T12:59:14;99549.13;;;14.19;60.68
65175;BME280;51761;42.126;24.752;2023-03-04T13:10:12;99535.13;;;14.03;62.68
65175;BME280;51761;42.126;24.752;2023-03-04T13:12:59;99522.72;;;14.17;59.95
65175;BME280;51761;42.126;24.752;2023-03-04T13:17:58;99509.69;;;14.23;58.10
65175;BME280;51761;42.126;24.752;2023-03-04T13:25:48;99532.69;;;13.93;58.24
65175;BME280;51761;42.126;24.752;2023-03-04T13:28:35;99520.78;;;14.14;57.96
65175;BME280;51761;42.126;24.752;2023-03-04T13:31:13;99512.13;;;14.45;58.84
65175;BME280;51761;42.126;24.752;2023-03-04T13:33:51;99518.63;;;14.55;59.15
65175;BME280;51761;42.126;24.752;2023-03-04T13:41:33;99487.31;;;14.07;58.94
65175;BME280;51761;42.126;24.752;2023-03-04T13:44:34;99507.22;;;14.25;58.97
65175;BME280;51761;42.126;24.752;2023-03-04T13:47:31;99492.56;;;13.92;59.61
65175;BME280;51761;42.126;24.752;2023-03-04T13:50:20;99499.19;;;13.86;59.39
65175;BME280;51761;42.126;24.752;2023-03-04T13:52:47;99502.81;;;13.86;60.19
65175;BME280;51761;42.126;24.752;2023-03-04T13:55:33;99498.06;;;13.71;60.56
65175;BME280;51761;42.126;24.752;2023-03-04T13:58:00;99485.81;;;13.65;62.02
65175;BME280;51761;42.126;24.752;2023-03-04T14:00:26;99482.78;;;13.59;62.92
65175;BME280;51761;42.126;24.752;2023-03-04T14:02:52;99485.13;;;13.61;62.81
65175;BME280;51761;42.126;24.752;2023-03-04T14:05:18;99465.81;;;13.50;64.00
65175;BME280;51761;42.126;24.752;2023-03-04T14:07:44;99476.84;;;13.29;62.20
65175;BME280;51761;42.126;24.752;2023-03-04T14:12:55;99478.34;;;13.33;62.63
65175;BME280;51761;42.126;24.752;2023-03-04T14:15:26;99483.19;;;13.45;62.14
65175;BME280;51761;42.126;24.752;2023-03-04T14:17:54;99465.91;;;13.47;63.03
65175;BME280;51761;42.126;24.752;2023-03-04T14:20:37;99464.06;;;13.28;63.45
65175;BME280;51761;42.126;24.752;2023-03-04T14:23:30;99471.53;;;13.47;62.87
65175;BME280;51761;42.126;24.752;2023-03-04T14:26:14;99476.81;;;13.45;63.71
65175;BME280;51761;42.126;24.752;2023-03-04T14:28:44;99464.28;;;13.62;62.18
65175;BME280;51761;42.126;24.752;2023-03-04T14:31:15;99458.28;;;13.60;61.38
65175;BME280;51761;42.126;24.752;2023-03-04T14:33:44;99454.81;;;13.56;61.71
65175;BME280;51761;42.126;24.752;2023-03-04T14:36:17;99449.53;;;13.58;61.59
65175;BME280;51761;42.126;24.752;2023-03-04T14:38:44;99443.16;;;13.57;61.51
65175;BME280;51761;42.126;24.752;2023-03-04T14:41:18;99440.25;;;13.48;60.85